MDT,Max TemperatureF,Mean TemperatureF,Min TemperatureF,Max Dew PointF,MeanDew PointF,Min DewpointF,Max Humidity, Mean Humidity, Min Humidity, Max Sea Level PressureIn, Mean Sea Level PressureIn, Min Sea Level PressureIn, Max VisibilityMiles, Mean VisibilityMiles, Min VisibilityMiles, Max Wind SpeedMPH, Mean Wind SpeedMPH, Max Gust SpeedMPH,PrecipitationIn, CloudCover, Events, WindDirDegrees
2013-8-1,78,65,51,55,50,43,86,60,33,30.41,30.12,30.02,10,9,0,33,7,41,0.74,4,Rain-Thunderstorm,193
2013-8-2,80,64,48,53,48,41,100,66,32,30.31,30.04,29.96,10,10,9,22,7,28,0.00,1,,285
2013-8-3,83,70,56,54,50,43,86,55,24,30.37,30.08,29.93,10,10,10,31,6,43,T,5,Rain-Thunderstorm,284
2013-8-4,84,67,49,55,48,40,93,58,22,30.30,30.11,30.00,10,10,9,24,7,32,0.08,3,Rain-Thunderstorm,344
2013-8-5,78,66,53,56,53,48,100,71,41,30.44,30.15,29.99,10,9,2,23,6,28,0.49,4,Rain-Thunderstorm,269
2013-8-6,76,63,50,55,52,46,100,72,44,30.09,30.04,29.95,10,10,7,21,7,25,0.04,5,Rain,236
2013-8-7,74,62,49,55,52,49,100,74,47,30.27,30.11,29.97,10,8,0,28,4,35,0.10,5,Fog-Rain-Thunderstorm,310
2013-8-8,71,59,47,52,48,43,100,71,42,30.27,30.11,29.97,10,8,0,25,5,31,0.12,6,Fog-Rain-Thunderstorm,33
2013-8-9,73,57,40,49,44,38,100,67,34,30.35,30.17,30.11,10,10,7,21,5,29,0.01,2,Rain,137
2013-8-10,78,61,43,49,46,36,96,59,22,30.50,30.26,30.05,10,9,2,29,6,33,0.58,3,Rain-Thunderstorm,320
2013-8-11,75,59,43,49,45,39,100,65,29,30.32,30.18,30.07,10,10,10,13,4,16,0.00,0,,329
2013-8-12,76,61,46,52,47,43,93,62,31,30.32,30.15,30.04,10,10,10,22,5,29,T,3,Rain-Thunderstorm,248
2013-8-13,73,58,43,49,45,35,100,66,31,30.39,30.17,30.10,10,10,10,29,5,44,T,3,Rain-Thunderstorm,256
2013-8-14,79,64,48,49,42,30,93,56,19,30.35,30.11,30.01,10,10,10,23,6,29,T,2,,239
2013-8-15,83,63,42,44,39,28,89,52,15,30.19,30.10,30.03,10,10,10,17,6,22,0.00,0,,269
2013-8-16,85,63,41,43,36,24,89,50,11,30.19,30.10,30.05,10,10,10,15,5,22,0.00,0,,222
2013-8-17,87,69,51,44,36,22,71,40,9,30.14,30.04,29.95,10,10,10,13,6,18,0.00,0,,350
2013-8-18,84,64,43,48,41,37,83,52,20,30.30,30.09,30.01,10,9,1,30,7,37,T,1,,211
2013-8-19,84,66,48,50,44,37,93,58,23,30.29,30.09,29.96,10,10,10,26,5,33,0.00,2,Thunderstorm,99
2013-8-20,86,66,45,47,43,33,93,55,17,30.10,30.02,29.93,10,10,10,15,4,18,0.00,1,,166
2013-8-21,88,67,45,55,45,33,82,49,16,30.30,30.08,29.93,10,10,10,20,2,25,T,3,Rain-Thunderstorm,304
2013-8-22,84,68,52,54,49,42,96,60,24,30.39,30.14,29.95,10,10,10,25,6,30,0.00,2,Thunderstorm,171
2013-8-23,82,66,50,52,43,23,96,54,11,30.36,30.01,29.89,10,10,10,17,8,23,T,2,Rain,186
2013-8-24,80,67,53,51,46,39,77,53,29,30.29,30.03,29.94,10,10,10,29,10,37,T,5,,194
2013-8-25,77,66,54,56,51,48,83,61,38,30.38,30.14,30.07,10,10,9,29,7,37,0.02,6,Rain,188
2013-8-26,82,65,47,53,49,44,93,61,28,30.23,30.13,30.03,10,10,10,15,5,21,0.00,1,,196
2013-8-27,85,66,46,58,48,42,86,56,25,30.29,30.09,29.96,10,10,2,20,4,31,0.20,1,Rain-Thunderstorm,96
2013-8-28,83,65,47,54,45,32,93,56,18,30.12,30.03,29.97,10,10,8,13,5,17,0.00,0,,147
2013-8-29,87,67,46,49,44,38,93,56,18,30.35,30.11,30.03,10,10,10,23,5,28,0.00,1,,160
2013-8-30,87,68,48,49,42,36,80,48,16,30.30,30.07,29.98,10,10,10,17,5,23,0.00,2,,102
2013-8-31,86,70,53,54,45,40,78,50,21,30.06,29.98,29.90,10,10,5,24,5,28,0.03,2,Rain,351